sensor_id;sensor_type;location;lat;lon;timestamp;P1;durP1;ratioP1;P2;durP2;ratioP2
14231;SDS011;7200;52.194;9.900;2023-11-19T00:02:09;0.10;;;0.10;;
14231;SDS011;7200;52.194;9.900;2023-11-19T00:04:38;0.20;;;0.20;;
14231;SDS011;7200;52.194;9.900;2023-11-19T00:07:06;0.10;;;0.10;;
14231;SDS011;7200;52.194;9.900;2023-11-19T00:09:33;0.20;;;0.20;;
14231;SDS011;7200;52.194;9.900;2023-11-19T00:11:59;0.17;;;0.17;;
14231;SDS011;7200;52.194;9.900;2023-11-19T00:14:25;0.00;;;0.00;;
14231;SDS011;7200;52.194;9.900;2023-11-19T00:16:51;0.20;;;0.20;;
14231;SDS011;7200;52.194;9.900;2023-11-19T00:19:16;0.10;;;0.10;;
14231;SDS011;7200;52.194;9.900;2023-11-19T00:21:41;0.00;;;0.00;;
14231;SDS011;7200;52.194;9.900;2023-11-19T00:24:07;0.20;;;0.20;;
14231;SDS011;7200;52.194;9.900;2023-11-19T00:26:33;0.10;;;0.10;;
14231;SDS011;7200;52.194;9.900;2023-11-19T00:28:58;0.30;;;0.30;;
14231;SDS011;7200;52.194;9.900;2023-11-19T00:31:24;0.00;;;0.00;;
14231;SDS011;7200;52.194;9.900;2023-11-19T00:33:51;0.20;;;0.20;;
14231;SDS011;7200;52.194;9.900;2023-11-19T00:36:16;0.10;;;0.10;;
14231;SDS011;7200;52.194;9.900;2023-11-19T00:38:42;0.00;;;0.00;;
14231;SDS011;7200;52.194;9.900;2023-11-19T00:41:07;0.17;;;0.17;;
14231;SDS011;7200;52.194;9.900;2023-11-19T00:43:32;0.17;;;0.17;;
14231;SDS011;7200;52.194;9.900;2023-11-19T00:45:58;0.00;;;0.00;;
14231;SDS011;7200;52.194;9.900;2023-11-19T00:48:23;0.20;;;0.13;;
14231;SDS011;7200;52.194;9.900;2023-11-19T00:50:48;0.50;;;0.30;;
14231;SDS011;7200;52.194;9.900;2023-11-19T00:53:15;0.10;;;0.10;;
14231;SDS011;7200;52.194;9.900;2023-11-19T00:55:40;0.10;;;0.10;;
14231;SDS011;7200;52.194;9.900;2023-11-19T00:58:06;0.17;;;0.13;;
14231;SDS011;7200;52.194;9.900;2023-11-19T01:00:31;0.00;;;0.00;;
14231;SDS011;7200;52.194;9.900;2023-11-19T01:02:57;0.10;;;0.10;;
14231;SDS011;7200;52.194;9.900;2023-11-19T01:05:22;0.00;;;0.00;;
14231;SDS011;7200;52.194;9.900;2023-11-19T01:07:48;0.00;;;0.00;;
14231;SDS011;7200;52.194;9.900;2023-11-19T01:10:14;0.00;;;0.00;;
14231;SDS011;7200;52.194;9.900;2023-11-19T01:12:40;0.00;;;0.00;;
14231;SDS011;7200;52.194;9.900;2023-11-19T01:15:06;0.00;;;0.00;;
14231;SDS011;7200;52.194;9.900;2023-11-19T01:17:32;0.00;;;0.00;;
14231;SDS011;7200;52.194;9.900;2023-11-19T01:19:57;0.00;;;0.00;;
14231;SDS011;7200;52.194;9.900;2023-11-19T01:22:22;0.00;;;0.00;;
14231;SDS011;7200;52.194;9.900;2023-11-19T01:24:48;0.00;;;0.00;;
14231;SDS011;7200;52.194;9.900;2023-11-19T01:27:13;0.00;;;0.00;;
14231;SDS011;7200;52.194;9.900;2023-11-19T01:29:39;0.00;;;0.00;;
14231;SDS011;7200;52.194;9.900;2023-11-19T01:32:04;0.00;;;0.00;;
14231;SDS011;7200;52.194;9.900;2023-11-19T01:34:30;0.00;;;0.00;;
14231;SDS011;7200;52.194;9.900;2023-11-19T01:36:55;0.00;;;0.00;;
14231;SDS011;7200;52.194;9.900;2023-11-19T01:39:20;0.00;;;0.00;;
14231;SDS011;7200;52.194;9.900;2023-11-19T01:41:46;0.10;;;0.10;;
14231;SDS011;7200;52.194;9.900;2023-11-19T01:44:11;0.00;;;0.00;;
14231;SDS011;7200;52.194;9.900;2023-11-19T01:46:42;0.17;;;0.17;;
14231;SDS011;7200;52.194;9.900;2023-11-19T01:49:12;0.20;;;0.20;;
14231;SDS011;7200;52.194;9.900;2023-11-19T01:51:39;0.00;;;0.00;;
14231;SDS011;7200;52.194;9.900;2023-11-19T01:54:06;0.00;;;0.00;;
14231;SDS011;7200;52.194;9.900;2023-11-19T01:56:32;0.00;;;0.00;;
14231;SDS011;7200;52.194;9.900;2023-11-19T01:58:58;0.40;;;0.30;;
14231;SDS011;7200;52.194;9.900;2023-11-19T02:01:24;0.10;;;0.10;;
14231;SDS011;7200;52.194;9.900;2023-11-19T02:03:49;0.10;;;0.10;;
14231;SDS011;7200;52.194;9.900;2023-11-19T02:06:16;0.10;;;0.10;;
14231;SDS011;7200;52.194;9.900;2023-11-19T02:08:42;0.00;;;0.00;;
14231;SDS011;7200;52.194;9.900;2023-11-19T02:11:08;0.00;;;0.00;;
14231;SDS011;7200;52.194;9.900;2023-11-19T02:13:34;0.33;;;0.10;;
14231;SDS011;7200;52.194;9.900;2023-11-19T02:16:02;0.37;;;0.10;;
14231;SDS011;7200;52.194;9.900;2023-11-19T02:18:28;0.17;;;0.10;;
14231;SDS011;7200;52.194;9.900;2023-11-19T02:20:54;0.10;;;0.10;;
14231;SDS011;7200;52.194;9.900;2023-11-19T02:23:23;0.10;;;0.10;;
14231;SDS011;7200;52.194;9.900;2023-11-19T02:28:42;0.20;;;0.20;;
14231;SDS011;7200;52.194;9.900;2023-11-19T02:31:09;0.17;;;0.00;;
14231;SDS011;7200;52.194;9.900;2023-11-19T02:33:38;0.00;;;0.00;;
14231;SDS011;7200;52.194;9.900;2023-11-19T02:36:04;0.00;;;0.00;;
14231;SDS011;7200;52.194;9.900;2023-11-19T02:38:31;0.10;;;0.07;;
14231;SDS011;7200;52.194;9.900;2023-11-19T02:40:57;0.00;;;0.00;;
14231;SDS011;7200;52.194;9.900;2023-11-19T02:43:23;0.00;;;0.00;;
14231;SDS011;7200;52.194;9.900;2023-11-19T02:45:48;0.00;;;0.00;;
14231;SDS011;7200;52.194;9.900;2023-11-19T02:48:14;0.00;;;0.00;;
14231;SDS011;7200;52.194;9.900;2023-11-19T02:50:41;0.00;;;0.00;;
14231;SDS011;7200;52.194;9.900;2023-11-19T02:53:06;0.00;;;0.00;;
14231;SDS011;7200;52.194;9.900;2023-11-19T02:55:32;0.00;;;0.00;;
14231;SDS011;7200;52.194;9.900;2023-11-19T02:58:02;0.00;;;0.00;;
14231;SDS011;7200;52.194;9.900;2023-11-19T03:00:34;0.00;;;0.00;;
14231;SDS011;7200;52.194;9.900;2023-11-19T03:03:02;0.27;;;0.00;;
14231;SDS011;7200;52.194;9.900;2023-11-19T03:05:42;0.07;;;0.00;;
14231;SDS011;7200;52.194;9.900;2023-11-19T03:08:09;0.10;;;0.10;;
14231;SDS011;7200;52.194;9.900;2023-11-19T03:10:34;0.10;;;0.10;;
14231;SDS011;7200;52.194;9.900;2023-11-19T03:13:00;0.00;;;0.00;;
14231;SDS011;7200;52.194;9.900;2023-11-19T03:15:27;0.17;;;0.10;;
14231;SDS011;7200;52.194;9.900;2023-11-19T03:17:52;0.10;;;0.10;;
14231;SDS011;7200;52.194;9.900;2023-11-19T03:20:17;0.10;;;0.10;;
14231;SDS011;7200;52.194;9.900;2023-11-19T03:22:43;0.30;;;0.10;;
14231;SDS011;7200;52.194;9.900;2023-11-19T03:25:09;0.20;;;0.20;;
14231;SDS011;7200;52.194;9.900;2023-11-19T03:27:38;2.53;;;0.07;;
14231;SDS011;7200;52.194;9.900;2023-11-19T03:30:07;0.10;;;0.10;;
14231;SDS011;7200;52.194;9.900;2023-11-19T03:32:36;0.00;;;0.00;;
14231;SDS011;7200;52.194;9.900;2023-11-19T03:35:02;0.00;;;0.00;;
14231;SDS011;7200;52.194;9.900;2023-11-19T03:37:29;0.10;;;0.10;;
14231;SDS011;7200;52.194;9.900;2023-11-19T03:39:56;0.00;;;0.00;;
14231;SDS011;7200;52.194;9.900;2023-11-19T03:42:24;0.40;;;0.40;;
14231;SDS011;7200;52.194;9.900;2023-11-19T03:44:51;0.30;;;0.30;;
14231;SDS011;7200;52.194;9.900;2023-11-19T03:47:17;0.10;;;0.10;;
14231;SDS011;7200;52.194;9.900;2023-11-19T03:49:46;1.07;;;0.30;;
14231;SDS011;7200;52.194;9.900;2023-11-19T03:52:13;0.10;;;0.10;;
14231;SDS011;7200;52.194;9.900;2023-11-19T03:54:38;0.30;;;0.30;;
14231;SDS011;7200;52.194;9.900;2023-11-19T03:57:04;0.00;;;0.00;;
14231;SDS011;7200;52.194;9.900;2023-11-19T03:59:30;0.10;;;0.00;;
14231;SDS011;7200;52.194;9.900;2023-11-19T04:01:55;0.00;;;0.00;;
14231;SDS011;7200;52.194;9.900;2023-11-19T04:04:21;0.23;;;0.20;;
14231;SDS011;7200;52.194;9.900;2023-11-19T04:06:47;0.50;;;0.50;;
14231;SDS011;7200;52.194;9.900;2023-11-19T04:09:12;0.00;;;0.00;;
14231;SDS011;7200;52.194;9.900;2023-11-19T04:11:37;0.50;;;0.50;;
14231;SDS011;7200;52.194;9.900;2023-11-19T04:14:03;0.70;;;0.27;;
14231;SDS011;7200;52.194;9.900;2023-11-19T04:16:28;0.37;;;0.37;;
14231;SDS011;7200;52.194;9.900;2023-11-19T04:18:56;0.30;;;0.30;;
14231;SDS011;7200;52.194;9.900;2023-11-19T04:21:22;0.10;;;0.10;;
14231;SDS011;7200;52.194;9.900;2023-11-19T04:23:48;0.73;;;0.57;;
14231;SDS011;7200;52.194;9.900;2023-11-19T04:26:14;0.57;;;0.57;;
14231;SDS011;7200;52.194;9.900;2023-11-19T04:28:40;0.30;;;0.30;;
14231;SDS011;7200;52.194;9.900;2023-11-19T04:31:06;0.53;;;0.53;;
14231;SDS011;7200;52.194;9.900;2023-11-19T04:33:31;0.70;;;0.43;;
14231;SDS011;7200;52.194;9.900;2023-11-19T04:35:56;0.93;;;0.93;;
14231;SDS011;7200;52.194;9.900;2023-11-19T04:38:22;0.40;;;0.33;;
14231;SDS011;7200;52.194;9.900;2023-11-19T04:40:47;2.70;;;1.47;;
14231;SDS011;7200;52.194;9.900;2023-11-19T04:43:12;0.70;;;0.70;;
14231;SDS011;7200;52.194;9.900;2023-11-19T04:45:38;2.43;;;1.03;;
14231;SDS011;7200;52.194;9.900;2023-11-19T04:48:04;1.90;;;1.47;;
14231;SDS011;7200;52.194;9.900;2023-11-19T04:50:30;1.37;;;1.27;;
14231;SDS011;7200;52.194;9.900;2023-11-19T04:52:55;1.07;;;0.40;;
14231;SDS011;7200;52.194;9.900;2023-11-19T04:55:21;0.40;;;0.40;;
14231;SDS011;7200;52.194;9.900;2023-11-19T04:57:46;0.90;;;0.90;;
14231;SDS011;7200;52.194;9.900;2023-11-19T05:00:12;1.87;;;1.33;;
14231;SDS011;7200;52.194;9.900;2023-11-19T05:02:38;2.20;;;1.13;;
14231;SDS011;7200;52.194;9.900;2023-11-19T05:05:04;0.00;;;0.00;;
14231;SDS011;7200;52.194;9.900;2023-11-19T05:07:29;2.23;;;1.67;;
14231;SDS011;7200;52.194;9.900;2023-11-19T05:09:55;0.10;;;0.10;;
14231;SDS011;7200;52.194;9.900;2023-11-19T05:12:20;0.00;;;0.00;;
14231;SDS011;7200;52.194;9.900;2023-11-19T05:14:46;1.60;;;1.50;;
14231;SDS011;7200;52.194;9.900;2023-11-19T05:17:15;1.10;;;0.97;;
14231;SDS011;7200;52.194;9.900;2023-11-19T05:19:40;0.90;;;0.90;;
14231;SDS011;7200;52.194;9.900;2023-11-19T05:22:06;0.50;;;0.50;;
14231;SDS011;7200;52.194;9.900;2023-11-19T05:24:32;0.73;;;0.73;;
14231;SDS011;7200;52.194;9.900;2023-11-19T05:26:58;0.43;;;0.40;;
14231;SDS011;7200;52.194;9.900;2023-11-19T05:29:23;0.80;;;0.40;;
14231;SDS011;7200;52.194;9.900;2023-11-19T05:31:49;0.10;;;0.10;;
14231;SDS011;7200;52.194;9.900;2023-11-19T05:34:14;0.50;;;0.50;;
14231;SDS011;7200;52.194;9.900;2023-11-19T05:36:40;0.90;;;0.90;;
14231;SDS011;7200;52.194;9.900;2023-11-19T05:39:05;0.80;;;0.80;;
14231;SDS011;7200;52.194;9.900;2023-11-19T05:41:30;2.67;;;1.70;;
14231;SDS011;7200;52.194;9.900;2023-11-19T05:43:56;0.97;;;0.97;;
14231;SDS011;7200;52.194;9.900;2023-11-19T05:46:21;1.70;;;1.37;;
14231;SDS011;7200;52.194;9.900;2023-11-19T05:48:47;0.77;;;0.70;;
14231;SDS011;7200;52.194;9.900;2023-11-19T05:51:12;6.33;;;1.80;;
14231;SDS011;7200;52.194;9.900;2023-11-19T05:53:39;2.27;;;1.23;;
14231;SDS011;7200;52.194;9.900;2023-11-19T05:56:05;1.80;;;1.10;;
14231;SDS011;7200;52.194;9.900;2023-11-19T05:58:32;3.27;;;1.20;;
14231;SDS011;7200;52.194;9.900;2023-11-19T06:00:58;0.43;;;0.43;;
14231;SDS011;7200;52.194;9.900;2023-11-19T06:03:25;0.67;;;0.67;;
14231;SDS011;7200;52.194;9.900;2023-11-19T06:05:51;1.20;;;0.40;;
14231;SDS011;7200;52.194;9.900;2023-11-19T06:08:17;5.77;;;1.20;;
14231;SDS011;7200;52.194;9.900;2023-11-19T06:10:43;1.40;;;1.30;;
14231;SDS011;7200;52.194;9.900;2023-11-19T06:13:11;3.27;;;0.97;;
14231;SDS011;7200;52.194;9.900;2023-11-19T06:15:36;3.57;;;1.30;;
14231;SDS011;7200;52.194;9.900;2023-11-19T06:18:02;10.97;;;3.10;;
14231;SDS011;7200;52.194;9.900;2023-11-19T06:20:32;4.03;;;2.33;;
14231;SDS011;7200;52.194;9.900;2023-11-19T06:22:58;4.17;;;2.77;;
14231;SDS011;7200;52.194;9.900;2023-11-19T06:25:24;4.97;;;3.40;;
14231;SDS011;7200;52.194;9.900;2023-11-19T06:27:50;1.63;;;1.53;;
14231;SDS011;7200;52.194;9.900;2023-11-19T06:30:15;2.13;;;1.53;;
14231;SDS011;7200;52.194;9.900;2023-11-19T06:32:41;3.77;;;2.40;;
14231;SDS011;7200;52.194;9.900;2023-11-19T06:35:06;9.07;;;3.40;;
14231;SDS011;7200;52.194;9.900;2023-11-19T06:37:33;6.30;;;2.80;;
14231;SDS011;7200;52.194;9.900;2023-11-19T06:39:59;3.63;;;1.80;;
14231;SDS011;7200;52.194;9.900;2023-11-19T06:42:24;2.90;;;1.43;;
14231;SDS011;7200;52.194;9.900;2023-11-19T06:44:49;10.27;;;3.50;;
14231;SDS011;7200;52.194;9.900;2023-11-19T06:47:16;2.73;;;2.10;;
14231;SDS011;7200;52.194;9.900;2023-11-19T06:49:43;6.37;;;2.80;;
14231;SDS011;7200;52.194;9.900;2023-11-19T06:52:09;5.03;;;2.83;;
14231;SDS011;7200;52.194;9.900;2023-11-19T06:54:34;4.77;;;2.80;;
14231;SDS011;7200;52.194;9.900;2023-11-19T06:57:00;4.23;;;2.80;;
14231;SDS011;7200;52.194;9.900;2023-11-19T06:59:25;5.67;;;2.20;;
14231;SDS011;7200;52.194;9.900;2023-11-19T07:01:51;6.37;;;3.17;;
14231;SDS011;7200;52.194;9.900;2023-11-19T07:04:16;4.30;;;1.80;;
14231;SDS011;7200;52.194;9.900;2023-11-19T07:06:41;5.23;;;1.60;;
14231;SDS011;7200;52.194;9.900;2023-11-19T07:09:07;2.07;;;1.57;;
14231;SDS011;7200;52.194;9.900;2023-11-19T07:11:36;4.20;;;3.20;;
14231;SDS011;7200;52.194;9.900;2023-11-19T07:14:05;7.07;;;2.87;;
14231;SDS011;7200;52.194;9.900;2023-11-19T07:16:34;3.20;;;1.93;;
14231;SDS011;7200;52.194;9.900;2023-11-19T07:19:02;3.13;;;0.23;;
14231;SDS011;7200;52.194;9.900;2023-11-19T07:21:27;7.90;;;2.63;;
14231;SDS011;7200;52.194;9.900;2023-11-19T07:23:53;3.83;;;1.83;;
14231;SDS011;7200;52.194;9.900;2023-11-19T07:26:19;2.10;;;1.30;;
14231;SDS011;7200;52.194;9.900;2023-11-19T07:28:44;6.00;;;2.70;;
14231;SDS011;7200;52.194;9.900;2023-11-19T07:31:10;1.70;;;1.50;;
14231;SDS011;7200;52.194;9.900;2023-11-19T07:33:36;11.47;;;5.37;;
14231;SDS011;7200;52.194;9.900;2023-11-19T07:36:01;2.87;;;1.60;;
14231;SDS011;7200;52.194;9.900;2023-11-19T07:38:26;11.70;;;2.60;;
14231;SDS011;7200;52.194;9.900;2023-11-19T07:40:52;4.73;;;1.77;;
14231;SDS011;7200;52.194;9.900;2023-11-19T07:43:17;7.00;;;3.03;;
14231;SDS011;7200;52.194;9.900;2023-11-19T07:45:43;3.60;;;2.23;;
14231;SDS011;7200;52.194;9.900;2023-11-19T07:48:10;3.20;;;1.63;;
14231;SDS011;7200;52.194;9.900;2023-11-19T07:50:38;0.60;;;0.60;;
14231;SDS011;7200;52.194;9.900;2023-11-19T07:53:03;6.03;;;1.30;;
14231;SDS011;7200;52.194;9.900;2023-11-19T07:55:29;9.87;;;2.20;;
14231;SDS011;7200;52.194;9.900;2023-11-19T07:57:55;7.57;;;2.27;;
14231;SDS011;7200;52.194;9.900;2023-11-19T08:00:20;2.23;;;1.40;;
14231;SDS011;7200;52.194;9.900;2023-11-19T08:02:46;8.07;;;2.90;;
14231;SDS011;7200;52.194;9.900;2023-11-19T08:05:11;4.63;;;1.90;;
14231;SDS011;7200;52.194;9.900;2023-11-19T08:07:36;11.13;;;3.17;;
14231;SDS011;7200;52.194;9.900;2023-11-19T08:10:02;5.53;;;2.27;;
14231;SDS011;7200;52.194;9.900;2023-11-19T08:12:27;3.93;;;2.13;;
14231;SDS011;7200;52.194;9.900;2023-11-19T08:14:52;6.73;;;1.97;;
14231;SDS011;7200;52.194;9.900;2023-11-19T08:17:18;8.30;;;2.20;;
14231;SDS011;7200;52.194;9.900;2023-11-19T08:19:43;8.00;;;2.93;;
14231;SDS011;7200;52.194;9.900;2023-11-19T08:22:08;8.87;;;3.17;;
14231;SDS011;7200;52.194;9.900;2023-11-19T08:24:34;4.73;;;1.93;;
14231;SDS011;7200;52.194;9.900;2023-11-19T08:27:00;8.43;;;2.57;;
14231;SDS011;7200;52.194;9.900;2023-11-19T08:29:25;8.83;;;1.47;;
14231;SDS011;7200;52.194;9.900;2023-11-19T08:31:52;3.93;;;1.47;;
14231;SDS011;7200;52.194;9.900;2023-11-19T08:34:18;8.90;;;1.57;;
14231;SDS011;7200;52.194;9.900;2023-11-19T08:36:43;6.43;;;2.40;;
14231;SDS011;7200;52.194;9.900;2023-11-19T08:39:09;2.57;;;1.13;;
14231;SDS011;7200;52.194;9.900;2023-11-19T08:41:34;12.13;;;3.07;;
14231;SDS011;7200;52.194;9.900;2023-11-19T08:43:59;11.27;;;3.47;;
14231;SDS011;7200;52.194;9.900;2023-11-19T08:46:25;7.90;;;2.30;;
14231;SDS011;7200;52.194;9.900;2023-11-19T08:48:51;12.00;;;2.50;;
14231;SDS011;7200;52.194;9.900;2023-11-19T08:51:16;3.93;;;1.70;;
14231;SDS011;7200;52.194;9.900;2023-11-19T08:53:41;10.50;;;2.23;;
14231;SDS011;7200;52.194;9.900;2023-11-19T08:56:07;4.90;;;1.53;;
14231;SDS011;7200;52.194;9.900;2023-11-19T08:58:32;7.67;;;2.67;;
14231;SDS011;7200;52.194;9.900;2023-11-19T09:00:58;0.40;;;0.40;;
14231;SDS011;7200;52.194;9.900;2023-11-19T09:03:23;13.23;;;2.90;;
14231;SDS011;7200;52.194;9.900;2023-11-19T09:05:51;9.60;;;2.70;;
14231;SDS011;7200;52.194;9.900;2023-11-19T09:08:16;9.50;;;3.37;;
14231;SDS011;7200;52.194;9.900;2023-11-19T09:10:42;10.87;;;2.97;;
14231;SDS011;7200;52.194;9.900;2023-11-19T09:13:07;12.60;;;4.40;;
14231;SDS011;7200;52.194;9.900;2023-11-19T09:15:32;13.70;;;3.27;;
14231;SDS011;7200;52.194;9.900;2023-11-19T09:17:58;11.53;;;3.47;;
14231;SDS011;7200;52.194;9.900;2023-11-19T09:20:23;16.97;;;3.70;;
14231;SDS011;7200;52.194;9.900;2023-11-19T09:22:49;15.30;;;3.97;;
14231;SDS011;7200;52.194;9.900;2023-11-19T09:25:14;0.60;;;0.30;;
14231;SDS011;7200;52.194;9.900;2023-11-19T09:27:43;5.17;;;1.03;;
14231;SDS011;7200;52.194;9.900;2023-11-19T09:30:08;9.97;;;1.67;;
14231;SDS011;7200;52.194;9.900;2023-11-19T09:32:34;7.10;;;1.37;;
14231;SDS011;7200;52.194;9.900;2023-11-19T09:35:00;9.70;;;2.67;;
14231;SDS011;7200;52.194;9.900;2023-11-19T09:37:25;4.87;;;1.67;;
14231;SDS011;7200;52.194;9.900;2023-11-19T09:39:51;2.83;;;1.60;;
14231;SDS011;7200;52.194;9.900;2023-11-19T09:42:18;1.37;;;1.10;;
14231;SDS011;7200;52.194;9.900;2023-11-19T09:44:44;10.67;;;3.00;;
14231;SDS011;7200;52.194;9.900;2023-11-19T09:47:11;6.43;;;1.40;;
14231;SDS011;7200;52.194;9.900;2023-11-19T09:49:38;17.30;;;3.53;;
14231;SDS011;7200;52.194;9.900;2023-11-19T09:52:04;3.60;;;0.90;;
14231;SDS011;7200;52.194;9.900;2023-11-19T09:54:30;3.70;;;1.70;;
14231;SDS011;7200;52.194;9.900;2023-11-19T09:56:55;3.13;;;1.17;;
14231;SDS011;7200;52.194;9.900;2023-11-19T09:59:27;10.67;;;2.50;;
14231;SDS011;7200;52.194;9.900;2023-11-19T10:01:53;4.10;;;2.63;;
14231;SDS011;7200;52.194;9.900;2023-11-19T10:04:21;1.90;;;0.77;;
14231;SDS011;7200;52.194;9.900;2023-11-19T10:06:47;5.60;;;2.17;;
14231;SDS011;7200;52.194;9.900;2023-11-19T10:09:13;17.00;;;2.83;;
14231;SDS011;7200;52.194;9.900;2023-11-19T10:11:40;11.10;;;2.67;;
14231;SDS011;7200;52.194;9.900;2023-11-19T10:14:05;5.50;;;2.43;;
14231;SDS011;7200;52.194;9.900;2023-11-19T10:16:31;11.63;;;3.50;;
14231;SDS011;7200;52.194;9.900;2023-11-19T10:18:59;1.13;;;0.43;;
14231;SDS011;7200;52.194;9.900;2023-11-19T10:21:28;11.67;;;2.87;;
14231;SDS011;7200;52.194;9.900;2023-11-19T10:23:57;12.03;;;2.13;;
14231;SDS011;7200;52.194;9.900;2023-11-19T10:26:24;10.93;;;3.03;;
14231;SDS011;7200;52.194;9.900;2023-11-19T10:28:50;0.40;;;0.40;;
14231;SDS011;7200;52.194;9.900;2023-11-19T10:31:16;3.97;;;1.20;;
14231;SDS011;7200;52.194;9.900;2023-11-19T10:33:43;2.57;;;1.27;;
14231;SDS011;7200;52.194;9.900;2023-11-19T10:36:10;6.73;;;2.27;;
14231;SDS011;7200;52.194;9.900;2023-11-19T10:38:39;3.27;;;0.93;;
14231;SDS011;7200;52.194;9.900;2023-11-19T10:41:05;8.47;;;3.00;;
14231;SDS011;7200;52.194;9.900;2023-11-19T10:43:31;8.70;;;3.57;;
14231;SDS011;7200;52.194;9.900;2023-11-19T10:46:12;9.03;;;1.80;;
14231;SDS011;7200;52.194;9.900;2023-11-19T10:48:39;19.77;;;4.57;;
14231;SDS011;7200;52.194;9.900;2023-11-19T10:51:05;12.83;;;3.67;;
14231;SDS011;7200;52.194;9.900;2023-11-19T10:53:36;5.67;;;2.27;;
14231;SDS011;7200;52.194;9.900;2023-11-19T10:56:04;5.10;;;1.43;;
14231;SDS011;7200;52.194;9.900;2023-11-19T10:58:33;1.73;;;1.53;;
14231;SDS011;7200;52.194;9.900;2023-11-19T11:01:03;5.30;;;1.70;;
14231;SDS011;7200;52.194;9.900;2023-11-19T11:03:40;9.97;;;1.53;;
14231;SDS011;7200;52.194;9.900;2023-11-19T11:06:06;8.17;;;3.07;;
14231;SDS011;7200;52.194;9.900;2023-11-19T11:08:33;9.70;;;1.13;;
14231;SDS011;7200;52.194;9.900;2023-11-19T11:11:04;11.80;;;1.83;;
14231;SDS011;7200;52.194;9.900;2023-11-19T11:13:31;1.30;;;0.83;;
14231;SDS011;7200;52.194;9.900;2023-11-19T11:15:58;4.27;;;1.90;;
14231;SDS011;7200;52.194;9.900;2023-11-19T11:18:24;9.60;;;2.87;;
14231;SDS011;7200;52.194;9.900;2023-11-19T11:20:51;2.70;;;1.73;;
14231;SDS011;7200;52.194;9.900;2023-11-19T11:28:41;9.27;;;2.93;;
14231;SDS011;7200;52.194;9.900;2023-11-19T11:31:15;7.23;;;2.07;;
14231;SDS011;7200;52.194;9.900;2023-11-19T11:36:59;12.73;;;2.43;;
14231;SDS011;7200;52.194;9.900;2023-11-19T11:39:33;10.93;;;2.77;;
14231;SDS011;7200;52.194;9.900;2023-11-19T11:44:58;8.57;;;2.33;;
14231;SDS011;7200;52.194;9.900;2023-11-19T11:47:23;10.90;;;2.23;;
14231;SDS011;7200;52.194;9.900;2023-11-19T11:49:48;0.63;;;0.63;;
14231;SDS011;7200;52.194;9.900;2023-11-19T11:52:16;25.63;;;3.10;;
14231;SDS011;7200;52.194;9.900;2023-11-19T11:54:42;14.03;;;3.73;;
14231;SDS011;7200;52.194;9.900;2023-11-19T11:57:08;11.50;;;3.50;;
14231;SDS011;7200;52.194;9.900;2023-11-19T12:02:07;20.33;;;2.83;;
14231;SDS011;7200;52.194;9.900;2023-11-19T12:04:34;2.93;;;1.23;;
14231;SDS011;7200;52.194;9.900;2023-11-19T12:07:03;6.70;;;2.13;;
14231;SDS011;7200;52.194;9.900;2023-11-19T12:09:33;10.80;;;2.93;;
14231;SDS011;7200;52.194;9.900;2023-11-19T12:12:12;13.80;;;2.77;;
14231;SDS011;7200;52.194;9.900;2023-11-19T12:20:02;3.30;;;1.00;;
14231;SDS011;7200;52.194;9.900;2023-11-19T12:22:30;9.83;;;2.00;;
14231;SDS011;7200;52.194;9.900;2023-11-19T12:24:56;7.33;;;2.90;;
14231;SDS011;7200;52.194;9.900;2023-11-19T12:27:21;14.03;;;2.77;;
14231;SDS011;7200;52.194;9.900;2023-11-19T12:29:47;7.43;;;2.43;;
14231;SDS011;7200;52.194;9.900;2023-11-19T12:32:13;4.70;;;1.47;;
14231;SDS011;7200;52.194;9.900;2023-11-19T12:34:38;13.27;;;3.63;;
14231;SDS011;7200;52.194;9.900;2023-11-19T12:37:04;11.20;;;2.83;;
14231;SDS011;7200;52.194;9.900;2023-11-19T12:39:30;11.97;;;2.07;;
14231;SDS011;7200;52.194;9.900;2023-11-19T12:41:56;10.20;;;3.83;;
14231;SDS011;7200;52.194;9.900;2023-11-19T12:44:25;10.67;;;1.63;;
14231;SDS011;7200;52.194;9.900;2023-11-19T12:47:06;8.47;;;1.53;;
14231;SDS011;7200;52.194;9.900;2023-11-19T12:49:35;10.83;;;1.10;;
14231;SDS011;7200;52.194;9.900;2023-11-19T12:52:00;10.93;;;2.27;;
14231;SDS011;7200;52.194;9.900;2023-11-19T12:54:33;12.03;;;2.20;;
14231;SDS011;7200;52.194;9.900;2023-11-19T12:57:01;4.87;;;2.70;;
14231;SDS011;7200;52.194;9.900;2023-11-19T12:59:28;12.10;;;1.97;;
14231;SDS011;7200;52.194;9.900;2023-11-19T13:01:56;7.27;;;2.13;;
14231;SDS011;7200;52.194;9.900;2023-11-19T13:04:27;15.07;;;2.00;;
14231;SDS011;7200;52.194;9.900;2023-11-19T13:06:55;11.50;;;1.40;;
14231;SDS011;7200;52.194;9.900;2023-11-19T13:09:25;9.20;;;2.93;;
14231;SDS011;7200;52.194;9.900;2023-11-19T13:11:52;4.70;;;1.60;;
14231;SDS011;7200;52.194;9.900;2023-11-19T13:14:19;10.87;;;2.60;;
14231;SDS011;7200;52.194;9.900;2023-11-19T13:16:45;8.87;;;2.50;;
14231;SDS011;7200;52.194;9.900;2023-11-19T13:19:14;10.20;;;2.93;;
14231;SDS011;7200;52.194;9.900;2023-11-19T13:21:44;11.80;;;3.30;;
14231;SDS011;7200;52.194;9.900;2023-11-19T13:24:13;8.43;;;2.30;;
14231;SDS011;7200;52.194;9.900;2023-11-19T13:26:44;12.20;;;2.70;;
14231;SDS011;7200;52.194;9.900;2023-11-19T13:29:11;7.43;;;2.17;;
14231;SDS011;7200;52.194;9.900;2023-11-19T13:31:36;4.97;;;1.37;;
14231;SDS011;7200;52.194;9.900;2023-11-19T13:34:02;6.40;;;1.60;;
14231;SDS011;7200;52.194;9.900;2023-11-19T13:36:27;8.37;;;3.10;;
14231;SDS011;7200;52.194;9.900;2023-11-19T13:38:53;12.53;;;1.80;;
14231;SDS011;7200;52.194;9.900;2023-11-19T13:41:23;7.80;;;2.20;;
14231;SDS011;7200;52.194;9.900;2023-11-19T13:43:50;10.70;;;3.20;;
14231;SDS011;7200;52.194;9.900;2023-11-19T13:46:15;13.77;;;2.77;;
14231;SDS011;7200;52.194;9.900;2023-11-19T13:48:41;3.07;;;0.90;;
14231;SDS011;7200;52.194;9.900;2023-11-19T13:51:06;12.27;;;2.93;;
14231;SDS011;7200;52.194;9.900;2023-11-19T13:53:31;8.33;;;2.20;;
14231;SDS011;7200;52.194;9.900;2023-11-19T13:55:57;4.00;;;2.47;;
14231;SDS011;7200;52.194;9.900;2023-11-19T13:58:22;6.67;;;2.13;;
14231;SDS011;7200;52.194;9.900;2023-11-19T14:00:48;7.73;;;1.80;;
14231;SDS011;7200;52.194;9.900;2023-11-19T14:03:14;12.67;;;3.60;;
14231;SDS011;7200;52.194;9.900;2023-11-19T14:05:39;11.23;;;2.10;;
14231;SDS011;7200;52.194;9.900;2023-11-19T14:08:06;3.40;;;0.87;;
14231;SDS011;7200;52.194;9.900;2023-11-19T14:10:36;3.23;;;1.10;;
14231;SDS011;7200;52.194;9.900;2023-11-19T14:13:04;14.33;;;1.53;;
14231;SDS011;7200;52.194;9.900;2023-11-19T14:15:29;2.43;;;1.43;;
14231;SDS011;7200;52.194;9.900;2023-11-19T14:17:54;0.47;;;0.47;;
14231;SDS011;7200;52.194;9.900;2023-11-19T14:20:20;3.80;;;0.40;;
14231;SDS011;7200;52.194;9.900;2023-11-19T14:22:45;9.97;;;2.13;;
14231;SDS011;7200;52.194;9.900;2023-11-19T14:25:15;3.70;;;2.17;;
14231;SDS011;7200;52.194;9.900;2023-11-19T14:27:40;7.27;;;2.73;;
14231;SDS011;7200;52.194;9.900;2023-11-19T14:30:08;17.10;;;1.47;;
14231;SDS011;7200;52.194;9.900;2023-11-19T14:32:38;2.43;;;1.07;;
14231;SDS011;7200;52.194;9.900;2023-11-19T14:35:05;0.80;;;0.80;;
14231;SDS011;7200;52.194;9.900;2023-11-19T14:37:31;7.13;;;2.10;;
14231;SDS011;7200;52.194;9.900;2023-11-19T14:39:57;11.37;;;3.27;;
14231;SDS011;7200;52.194;9.900;2023-11-19T14:42:25;15.70;;;3.70;;
14231;SDS011;7200;52.194;9.900;2023-11-19T14:44:51;5.23;;;1.73;;
14231;SDS011;7200;52.194;9.900;2023-11-19T14:47:20;5.17;;;1.90;;
14231;SDS011;7200;52.194;9.900;2023-11-19T14:49:46;7.60;;;2.23;;
14231;SDS011;7200;52.194;9.900;2023-11-19T14:52:12;13.60;;;2.10;;
14231;SDS011;7200;52.194;9.900;2023-11-19T14:54:37;4.50;;;2.03;;
14231;SDS011;7200;52.194;9.900;2023-11-19T14:57:06;5.37;;;1.90;;
14231;SDS011;7200;52.194;9.900;2023-11-19T14:59:33;4.53;;;2.53;;
14231;SDS011;7200;52.194;9.900;2023-11-19T15:01:58;6.20;;;1.77;;
14231;SDS011;7200;52.194;9.900;2023-11-19T15:04:25;4.27;;;1.87;;
14231;SDS011;7200;52.194;9.900;2023-11-19T15:06:51;4.63;;;1.13;;
14231;SDS011;7200;52.194;9.900;2023-11-19T15:09:16;6.83;;;1.80;;
14231;SDS011;7200;52.194;9.900;2023-11-19T15:11:43;0.03;;;0.03;;
14231;SDS011;7200;52.194;9.900;2023-11-19T15:14:11;6.13;;;3.07;;
14231;SDS011;7200;52.194;9.900;2023-11-19T15:16:39;3.60;;;1.03;;